Hlavní strana
METAR-TAF:

METAR-TAF

Letiště :

MidCoast Regional Airport / Wright Army Airfield

Hinesville, Georgie, Spojené státy americké

zeměpisná šířka: 31-53N, zeměpisná délka: 081-34W, výška: 14 m

Aktuální stav počasí

Zpráva byla vytvořena před 18 minutami, v 10:56 UTC
Bezvětří
Teplota 19°C
Vlhkost vzduchu 94%
Tlak 1021 hPa
Viditelnost: 16.1 km
Jasno

METAR: KLHW 241056Z AUTO 00000KT 10SM CLR 19/18 A3016 RMK AO2 SLP216 T01870179 $

Čas: 07:14 (11:14 UTC)


TAF: chybějící

Stav a předpovědi počasí z více než 4 000 letišť (zprávy METAR a TAF).

Červené a žluté tečky na mapě představují dostupné meteorologické stanice.

Když kurzor umístíte na tečku, zobrazí se název stanice.

Pak kliknutím zobrazíte stav a předpověď počasí.

Chcete-li změnit mapu, kliknutím na zelené tlačítko se znaménkem +mapu přiblížíte, kliknutím na zelené tlačítko se znaménkem – mapu oddálíte a kliknutím na zelené šipky přejdete na sousední mapy.


METAR-TAF: